Algood, Tennessee
Current Conditions -  °F | °C
As of 8:15 PM on Saturday 22 Nov 2014 (Local Time) from KSRB Reporting Station
Clear Clear  
Wind Chill: 12°   Ceiling: Unl
Heat Index: 12°   Visibility: 10mi
Dew Point:   Wind: 9mph
Humidity: 47%   Direction: 170°S
Pressure: 30.15"   Gusts: NA
Location:  36.1802°N, 85.4582°W
Report Text: KSRB 230215Z AUTO 17008KT 10SM CLR 12/01 A3015 RMK
Loading
Personal Weather Stations






























Interactive Weather Map New forecast layout! Learn more

10-Day Weather Forecast

Advertisements
Track Severe Weather on mobile